createdAt,value
2022-08-31T00:00:15.287Z,23.10
2022-08-31T00:03:04.208Z,23.10
2022-08-31T00:05:34.608Z,23.00
2022-08-31T00:08:08.486Z,23.00
2022-08-31T00:10:44.987Z,23.00
2022-08-31T00:13:18.027Z,23.00
2022-08-31T00:18:29.988Z,23.00
2022-08-31T00:21:00.483Z,23.00
2022-08-31T00:23:35.077Z,23.00
2022-08-31T00:26:04.148Z,23.10
2022-08-31T00:28:39.319Z,23.10
2022-08-31T00:31:09.397Z,23.10
2022-08-31T00:33:41.229Z,23.10
2022-08-31T00:36:14.367Z,23.10
2022-08-31T00:38:45.437Z,23.10
2022-08-31T00:41:15.013Z,23.10
2022-08-31T00:43:49.917Z,23.10
2022-08-31T00:46:28.270Z,23.10
2022-08-31T00:49:15.308Z,23.00
2022-08-31T00:51:54.495Z,23.00
2022-08-31T00:54:29.445Z,22.90
2022-08-31T00:56:57.128Z,22.90
2022-08-31T00:59:28.096Z,22.90
2022-08-31T01:01:58.461Z,22.90
2022-08-31T01:04:27.177Z,22.90
2022-08-31T01:06:55.304Z,22.90
2022-08-31T01:09:30.525Z,22.90
2022-08-31T01:12:00.207Z,22.90
2022-08-31T01:14:34.054Z,22.90
2022-08-31T01:17:06.384Z,22.90
2022-08-31T01:19:53.227Z,22.90
2022-08-31T01:22:39.135Z,22.90
2022-08-31T01:25:12.719Z,23.00
2022-08-31T01:27:44.688Z,22.90
2022-08-31T01:30:21.807Z,22.90
2022-08-31T01:32:52.653Z,22.90
2022-08-31T01:35:24.316Z,22.80
2022-08-31T01:37:58.353Z,22.90
2022-08-31T01:40:44.484Z,22.80
2022-08-31T01:43:18.498Z,22.70
2022-08-31T01:45:46.534Z,22.70
2022-08-31T01:48:15.294Z,22.60
2022-08-31T01:50:51.748Z,22.60
2022-08-31T01:53:22.251Z,22.60
2022-08-31T01:55:56.425Z,22.60
2022-08-31T01:58:36.188Z,22.60
2022-08-31T02:01:36.058Z,22.50
2022-08-31T02:04:08.460Z,22.50
2022-08-31T02:06:44.871Z,22.50
2022-08-31T02:09:18.045Z,22.50
2022-08-31T02:11:47.703Z,22.60
2022-08-31T02:14:21.233Z,22.60
2022-08-31T02:16:49.337Z,22.50
2022-08-31T02:19:19.759Z,22.50
2022-08-31T02:21:50.815Z,22.50
2022-08-31T02:24:23.194Z,22.50
2022-08-31T02:26:53.987Z,22.50
2022-08-31T02:29:25.055Z,22.50
2022-08-31T02:31:56.610Z,22.50
2022-08-31T02:34:24.031Z,22.50
2022-08-31T02:36:58.011Z,22.50
2022-08-31T02:39:30.768Z,22.50
2022-08-31T02:42:04.486Z,22.50
2022-08-31T02:44:33.245Z,22.50
2022-08-31T02:47:08.706Z,22.40
2022-08-31T02:50:21.570Z,22.40
2022-08-31T02:52:52.882Z,22.40
2022-08-31T02:55:23.372Z,22.40
2022-08-31T02:57:55.712Z,22.40
2022-08-31T03:00:27.084Z,22.40
2022-08-31T03:02:57.668Z,22.30
2022-08-31T03:05:30.923Z,22.30
2022-08-31T03:08:03.677Z,22.20
2022-08-31T03:10:34.925Z,22.20
2022-08-31T03:13:07.220Z,22.10
2022-08-31T03:15:38.848Z,22.10
2022-08-31T03:18:09.916Z,22.00
2022-08-31T03:20:41.553Z,22.00
2022-08-31T03:23:17.053Z,21.90
2022-08-31T03:25:45.770Z,21.90
2022-08-31T03:28:16.323Z,21.80
2022-08-31T03:31:02.869Z,21.60
2022-08-31T03:33:34.912Z,21.60
2022-08-31T03:36:05.681Z,21.60
2022-08-31T03:38:37.016Z,21.50
2022-08-31T03:41:08.981Z,21.60
2022-08-31T03:43:42.306Z,21.50
2022-08-31T03:46:13.429Z,21.40
2022-08-31T03:48:51.147Z,21.40
2022-08-31T03:51:22.649Z,21.40
2022-08-31T03:53:53.184Z,21.30
2022-08-31T03:56:25.063Z,21.10
2022-08-31T03:58:58.368Z,21.20
2022-08-31T04:02:01.395Z,21.30
2022-08-31T04:04:57.080Z,21.30
2022-08-31T04:07:49.727Z,21.30
2022-08-31T04:10:51.600Z,21.30
2022-08-31T04:13:58.445Z,21.30
2022-08-31T04:16:38.108Z,21.40
2022-08-31T04:19:27.484Z,21.40
2022-08-31T04:22:04.730Z,21.40
2022-08-31T04:24:40.217Z,21.40
2022-08-31T04:27:12.707Z,21.40
2022-08-31T04:29:42.298Z,21.40
2022-08-31T04:32:13.641Z,21.40
2022-08-31T04:34:44.155Z,21.40
2022-08-31T04:37:18.382Z,21.50
2022-08-31T04:39:50.955Z,21.40
2022-08-31T04:42:24.033Z,21.50
2022-08-31T04:44:52.928Z,21.60
2022-08-31T04:47:24.437Z,21.50
2022-08-31T04:49:57.456Z,21.60
2022-08-31T04:52:28.389Z,21.60
2022-08-31T04:54:58.565Z,21.70
2022-08-31T04:57:28.345Z,21.70
2022-08-31T05:00:00.927Z,21.70
2022-08-31T05:03:05.751Z,21.70
2022-08-31T05:05:42.161Z,21.60
2022-08-31T05:08:14.020Z,21.50
2022-08-31T05:10:45.921Z,21.50
2022-08-31T05:13:15.611Z,21.60
2022-08-31T05:15:47.047Z,21.60
2022-08-31T05:18:24.791Z,21.50
2022-08-31T05:20:59.888Z,21.50
2022-08-31T05:23:35.687Z,21.50
2022-08-31T05:26:03.181Z,21.50
2022-08-31T05:28:37.197Z,21.50
2022-08-31T05:31:07.355Z,21.60
2022-08-31T05:33:40.733Z,21.60
2022-08-31T05:36:14.780Z,21.60
2022-08-31T05:38:45.533Z,21.70
2022-08-31T05:41:19.785Z,21.60
2022-08-31T05:43:51.112Z,21.60
2022-08-31T05:46:21.243Z,21.60
2022-08-31T05:48:53.125Z,21.60
2022-08-31T05:51:24.925Z,21.60
2022-08-31T05:53:56.095Z,21.60
2022-08-31T05:56:28.068Z,21.60
2022-08-31T05:58:59.389Z,21.70
2022-08-31T06:01:35.778Z,21.70
2022-08-31T06:04:20.304Z,21.70
2022-08-31T06:06:50.151Z,21.70
2022-08-31T06:09:23.364Z,21.70
2022-08-31T06:11:57.381Z,21.60
2022-08-31T06:14:29.338Z,21.50
2022-08-31T06:17:02.422Z,21.60
2022-08-31T06:19:35.579Z,21.50
2022-08-31T06:22:03.817Z,21.60
2022-08-31T06:24:37.157Z,21.50
2022-08-31T06:27:13.222Z,21.50
2022-08-31T06:29:46.940Z,21.60
2022-08-31T06:32:19.623Z,21.60
2022-08-31T06:35:09.480Z,21.70
2022-08-31T06:38:07.178Z,21.80
2022-08-31T06:41:17.865Z,21.90
2022-08-31T06:44:17.631Z,21.80
2022-08-31T06:47:22.103Z,21.90
2022-08-31T06:50:00.262Z,22.00
2022-08-31T06:52:28.567Z,22.00
2022-08-31T06:55:14.875Z,22.00
2022-08-31T06:58:05.799Z,22.00
2022-08-31T07:01:13.364Z,22.10
2022-08-31T07:04:15.627Z,22.10
2022-08-31T07:06:49.380Z,22.00
2022-08-31T07:09:40.783Z,21.90
2022-08-31T07:12:12.878Z,21.90
2022-08-31T07:15:05.335Z,22.00
2022-08-31T07:17:54.723Z,22.10
2022-08-31T07:20:22.401Z,22.30
2022-08-31T07:22:54.465Z,22.40
2022-08-31T07:25:56.577Z,22.50
2022-08-31T07:28:53.339Z,22.70
2022-08-31T07:31:29.211Z,22.70
2022-08-31T07:33:59.498Z,22.80
2022-08-31T07:36:31.338Z,22.90
2022-08-31T07:39:28.599Z,23.00
2022-08-31T07:42:11.876Z,22.90
2022-08-31T07:44:51.026Z,22.80
2022-08-31T07:47:25.010Z,22.80
2022-08-31T07:49:56.827Z,22.80
2022-08-31T07:53:14.423Z,22.80
2022-08-31T07:56:01.599Z,22.80
2022-08-31T07:58:49.336Z,22.90
2022-08-31T08:01:36.013Z,22.90
2022-08-31T08:04:08.794Z,22.90
2022-08-31T08:07:02.268Z,23.00
2022-08-31T08:09:55.646Z,23.20
2022-08-31T08:12:51.183Z,23.30
2022-08-31T08:15:40.424Z,23.40
2022-08-31T08:18:38.101Z,23.20
2022-08-31T08:21:09.077Z,23.10
2022-08-31T08:23:46.534Z,23.10
2022-08-31T08:26:56.436Z,23.20
2022-08-31T08:29:56.182Z,23.30
2022-08-31T08:32:30.304Z,23.40
2022-08-31T08:35:01.258Z,23.50
2022-08-31T08:37:57.104Z,23.60
2022-08-31T08:40:46.028Z,23.70
2022-08-31T08:43:20.475Z,23.70
2022-08-31T08:45:55.981Z,23.80
2022-08-31T08:48:39.264Z,23.80
2022-08-31T08:51:23.307Z,23.80
2022-08-31T08:54:01.735Z,23.90
2022-08-31T08:56:45.593Z,23.90
2022-08-31T08:59:19.268Z,23.90
2022-08-31T09:01:56.362Z,24.00
2022-08-31T09:04:54.753Z,24.00
2022-08-31T09:08:35.259Z,24.00
2022-08-31T09:11:28.717Z,24.00
2022-08-31T09:14:21.949Z,24.10
2022-08-31T09:17:04.031Z,24.10
2022-08-31T09:19:53.951Z,24.20
2022-08-31T09:22:25.078Z,24.30
2022-08-31T09:24:56.796Z,24.40
2022-08-31T09:28:01.212Z,24.40
2022-08-31T09:30:38.066Z,24.40
2022-08-31T09:33:08.361Z,24.50
2022-08-31T09:35:44.060Z,24.50
2022-08-31T09:38:26.240Z,24.60
2022-08-31T09:40:55.847Z,24.60
2022-08-31T09:43:27.162Z,24.70
2022-08-31T09:46:15.908Z,24.80
2022-08-31T09:48:51.812Z,24.90
2022-08-31T09:51:42.138Z,24.90
2022-08-31T09:54:51.753Z,25.00
2022-08-31T09:57:21.245Z,25.00
2022-08-31T09:59:52.853Z,25.00
2022-08-31T10:02:38.411Z,25.10
2022-08-31T10:05:29.301Z,25.10
2022-08-31T10:08:05.386Z,25.20
2022-08-31T10:10:40.323Z,25.30
2022-08-31T10:13:48.661Z,25.40
2022-08-31T10:16:47.577Z,25.30
2022-08-31T10:19:36.364Z,25.40
2022-08-31T10:22:13.272Z,25.50
2022-08-31T10:24:51.115Z,25.60
2022-08-31T10:27:39.561Z,25.60
2022-08-31T10:30:29.239Z,25.70
2022-08-31T10:34:09.564Z,25.80
2022-08-31T10:36:50.943Z,25.90
2022-08-31T10:39:51.761Z,26.10
2022-08-31T10:42:39.893Z,26.20
2022-08-31T10:45:28.358Z,26.30
2022-08-31T10:47:57.248Z,26.40
2022-08-31T10:50:57.358Z,26.50
2022-08-31T10:53:45.336Z,26.50
2022-08-31T10:56:20.908Z,26.50
2022-08-31T10:59:22.598Z,26.50
2022-08-31T11:02:25.947Z,26.50
2022-08-31T11:05:25.444Z,26.70
2022-08-31T11:08:37.890Z,26.80
2022-08-31T11:11:19.338Z,26.90
2022-08-31T11:14:17.179Z,27.00
2022-08-31T11:17:24.963Z,27.10
2022-08-31T11:20:12.907Z,27.20
2022-08-31T11:23:07.171Z,27.30
2022-08-31T11:25:55.786Z,27.40
2022-08-31T11:28:35.123Z,27.50
2022-08-31T11:31:29.363Z,27.60
2022-08-31T11:34:18.067Z,27.70
2022-08-31T11:37:01.272Z,27.70
2022-08-31T11:39:54.698Z,27.70
2022-08-31T11:42:31.111Z,27.80
2022-08-31T11:45:30.870Z,27.90
2022-08-31T11:48:04.026Z,28.10
2022-08-31T11:51:11.347Z,28.20
2022-08-31T11:53:46.429Z,28.50
2022-08-31T11:56:30.245Z,28.60
2022-08-31T11:59:35.850Z,28.80
2022-08-31T12:02:29.296Z,28.90
2022-08-31T12:05:06.532Z,28.70
2022-08-31T12:07:46.129Z,28.50
2022-08-31T12:10:48.002Z,28.60
2022-08-31T12:13:55.025Z,28.90
2022-08-31T12:16:58.693Z,29.10
2022-08-31T12:20:27.501Z,29.10
2022-08-31T12:23:41.936Z,29.40
2022-08-31T12:26:25.541Z,29.50
2022-08-31T12:29:16.701Z,29.20
2022-08-31T12:32:10.566Z,29.20
2022-08-31T12:34:53.304Z,29.30
2022-08-31T12:37:40.182Z,29.50
2022-08-31T12:40:19.849Z,29.30
2022-08-31T12:43:16.593Z,29.50
2022-08-31T12:45:51.830Z,29.70
2022-08-31T12:49:00.232Z,30.10
2022-08-31T12:51:43.722Z,30.50
2022-08-31T12:54:39.696Z,31.00
2022-08-31T12:57:35.649Z,31.40
2022-08-31T13:00:36.285Z,31.50
2022-08-31T13:03:33.380Z,31.60
2022-08-31T13:06:12.313Z,32.70
2022-08-31T13:08:50.049Z,33.10
2022-08-31T13:11:48.770Z,32.40
2022-08-31T13:14:40.929Z,31.80
2022-08-31T13:17:20.359Z,31.00
2022-08-31T13:19:54.366Z,30.10
2022-08-31T13:22:55.873Z,29.60
2022-08-31T13:25:37.086Z,29.40
2022-08-31T13:28:32.320Z,29.20
2022-08-31T13:31:04.517Z,29.10
2022-08-31T13:33:43.747Z,29.20
2022-08-31T13:36:37.314Z,29.80
2022-08-31T13:39:32.688Z,31.10
2022-08-31T13:42:10.368Z,33.70
2022-08-31T13:44:52.058Z,35.40
2022-08-31T13:47:25.907Z,37.00
2022-08-31T13:50:11.112Z,38.20
2022-08-31T13:53:25.506Z,37.60
2022-08-31T13:55:53.025Z,36.40
2022-08-31T13:58:35.629Z,35.60
2022-08-31T14:01:28.463Z,36.20
2022-08-31T14:04:01.982Z,37.50
2022-08-31T14:06:36.691Z,38.30
2022-08-31T14:09:21.645Z,39.00
2022-08-31T14:14:49.341Z,39.70
2022-08-31T14:17:19.181Z,39.80
2022-08-31T14:19:49.726Z,39.80
2022-08-31T14:22:48.003Z,39.80
2022-08-31T14:25:20.540Z,39.40
2022-08-31T14:27:50.696Z,39.30
2022-08-31T14:30:24.090Z,39.30
2022-08-31T14:33:06.586Z,39.20
2022-08-31T14:35:36.347Z,39.20
2022-08-31T14:38:06.693Z,39.10
2022-08-31T14:40:38.396Z,39.10
2022-08-31T14:43:13.070Z,38.80
2022-08-31T14:45:46.424Z,38.60
2022-08-31T14:48:22.633Z,38.60
2022-08-31T14:50:54.213Z,39.00
2022-08-31T14:53:29.496Z,39.60
2022-08-31T14:56:02.361Z,40.00
2022-08-31T14:58:35.470Z,40.30
2022-08-31T15:01:16.430Z,40.10
2022-08-31T15:03:49.088Z,40.20
2022-08-31T15:06:23.814Z,40.50
2022-08-31T15:08:56.030Z,40.20
2022-08-31T15:11:27.620Z,39.50
2022-08-31T15:14:01.249Z,39.00
2022-08-31T15:16:34.995Z,38.50
2022-08-31T15:19:15.708Z,37.70
2022-08-31T15:21:58.830Z,36.40
2022-08-31T15:24:33.860Z,35.80
2022-08-31T15:27:01.838Z,35.30
2022-08-31T15:29:34.657Z,34.90
2022-08-31T15:32:04.743Z,34.40
2022-08-31T15:34:34.985Z,33.80
2022-08-31T15:37:08.816Z,33.30
2022-08-31T15:39:50.645Z,33.20
2022-08-31T15:42:24.251Z,33.40
2022-08-31T15:45:05.286Z,33.50
2022-08-31T15:47:57.457Z,33.50
2022-08-31T15:50:31.411Z,33.50
2022-08-31T15:53:09.302Z,33.70
2022-08-31T15:55:40.887Z,33.70
2022-08-31T15:58:10.373Z,33.70
2022-08-31T16:00:42.402Z,33.60
2022-08-31T16:03:10.845Z,33.40
2022-08-31T16:05:41.955Z,33.20
2022-08-31T16:08:14.769Z,33.00
2022-08-31T16:10:46.937Z,32.70
2022-08-31T16:13:21.423Z,32.20
2022-08-31T16:15:56.464Z,31.90
2022-08-31T16:18:28.719Z,31.50
2022-08-31T16:21:01.989Z,31.30
2022-08-31T16:23:32.623Z,30.90
2022-08-31T16:26:01.276Z,30.80
2022-08-31T16:28:30.975Z,30.60
2022-08-31T16:31:08.501Z,30.30
2022-08-31T16:33:36.265Z,30.10
2022-08-31T16:36:06.554Z,30.10
2022-08-31T16:38:34.933Z,30.00
2022-08-31T16:41:05.021Z,30.10
2022-08-31T16:43:35.640Z,29.90
2022-08-31T16:46:30.571Z,29.90
2022-08-31T16:49:18.277Z,29.90
2022-08-31T16:51:52.370Z,29.70
2022-08-31T16:54:28.814Z,29.40
2022-08-31T16:57:01.113Z,29.30
2022-08-31T16:59:33.380Z,29.10
2022-08-31T17:02:03.407Z,28.90
2022-08-31T17:04:51.520Z,28.80
2022-08-31T17:07:23.551Z,28.60
2022-08-31T17:09:57.982Z,28.50
2022-08-31T17:12:28.521Z,28.20
2022-08-31T17:15:01.850Z,28.10
2022-08-31T17:17:36.136Z,28.00
2022-08-31T17:20:06.798Z,27.80
2022-08-31T17:22:39.763Z,27.70
2022-08-31T17:25:11.570Z,27.70
2022-08-31T17:27:43.431Z,27.70
2022-08-31T17:30:15.658Z,27.70
2022-08-31T17:32:51.095Z,27.70
2022-08-31T17:35:19.937Z,27.60
2022-08-31T17:37:50.591Z,27.60
2022-08-31T17:40:27.225Z,27.40
2022-08-31T17:42:59.918Z,27.30
2022-08-31T17:45:36.191Z,27.20
2022-08-31T17:48:08.717Z,27.10
2022-08-31T17:50:44.346Z,27.20
2022-08-31T17:53:16.247Z,27.20
2022-08-31T17:55:55.193Z,27.10
2022-08-31T17:58:25.016Z,27.10
2022-08-31T18:00:56.731Z,27.20
2022-08-31T18:03:29.325Z,27.20
2022-08-31T18:06:02.197Z,27.20
2022-08-31T18:08:32.181Z,27.20
2022-08-31T18:11:03.805Z,27.20
2022-08-31T18:13:31.496Z,27.10
2022-08-31T18:16:01.153Z,27.10
2022-08-31T18:18:31.254Z,27.10
2022-08-31T18:21:12.221Z,27.10
2022-08-31T18:23:43.019Z,27.00
2022-08-31T18:26:20.513Z,27.00
2022-08-31T18:28:51.340Z,26.90
2022-08-31T18:31:42.155Z,26.90
2022-08-31T18:34:31.091Z,26.90
2022-08-31T18:37:01.232Z,26.90
2022-08-31T18:39:54.117Z,26.90
2022-08-31T18:42:43.418Z,26.80
2022-08-31T18:45:19.524Z,26.80
2022-08-31T18:48:21.267Z,26.70
2022-08-31T18:50:46.907Z,26.60
2022-08-31T18:53:29.515Z,26.50
2022-08-31T18:56:07.593Z,26.40
2022-08-31T18:58:42.463Z,26.30
2022-08-31T19:01:18.048Z,26.30
2022-08-31T19:03:49.647Z,26.30
2022-08-31T19:06:21.669Z,26.20
2022-08-31T19:08:53.740Z,26.20
2022-08-31T19:11:23.697Z,26.20
2022-08-31T19:13:53.413Z,26.00
2022-08-31T19:16:27.208Z,26.00
2022-08-31T19:19:00.526Z,26.00
2022-08-31T19:21:33.796Z,25.90
2022-08-31T19:24:14.784Z,25.90
2022-08-31T19:26:52.797Z,25.90
2022-08-31T19:29:28.864Z,25.80
2022-08-31T19:32:01.465Z,25.80
2022-08-31T19:34:35.135Z,25.80
2022-08-31T19:37:07.790Z,25.80
2022-08-31T19:39:40.054Z,25.90
2022-08-31T19:42:09.447Z,25.80
2022-08-31T19:47:39.166Z,25.80
2022-08-31T19:50:13.627Z,25.70
2022-08-31T19:52:49.052Z,25.70
2022-08-31T19:55:18.476Z,25.70
2022-08-31T19:57:49.433Z,25.70
2022-08-31T20:00:22.282Z,25.70
2022-08-31T20:02:50.859Z,25.70
2022-08-31T20:05:24.856Z,25.70
2022-08-31T20:07:55.347Z,25.70
2022-08-31T20:10:30.256Z,25.70
2022-08-31T20:13:05.094Z,25.60
2022-08-31T20:15:32.462Z,25.50
2022-08-31T20:18:00.429Z,25.50
2022-08-31T20:20:29.366Z,25.50
2022-08-31T20:22:59.568Z,25.40
2022-08-31T20:25:29.727Z,25.30
2022-08-31T20:28:03.326Z,25.30
2022-08-31T20:30:40.944Z,25.20
2022-08-31T20:33:11.299Z,25.30
2022-08-31T20:35:49.416Z,25.10
2022-08-31T20:38:22.474Z,25.10
2022-08-31T20:40:54.391Z,25.00
2022-08-31T20:43:23.729Z,25.00
2022-08-31T20:45:55.671Z,25.10
2022-08-31T20:48:46.604Z,25.10
2022-08-31T20:51:20.536Z,25.10
2022-08-31T20:53:51.988Z,25.10
2022-08-31T20:56:34.178Z,25.10
2022-08-31T20:59:14.372Z,25.10
2022-08-31T21:01:46.345Z,25.10
2022-08-31T21:04:18.662Z,25.10
2022-08-31T21:06:46.255Z,25.10
2022-08-31T21:09:18.801Z,25.00
2022-08-31T21:11:51.065Z,24.90
2022-08-31T21:14:24.621Z,24.90
2022-08-31T21:16:55.408Z,24.90
2022-08-31T21:19:30.038Z,24.90
2022-08-31T21:22:02.293Z,24.90
2022-08-31T21:24:35.909Z,25.00
2022-08-31T21:27:08.041Z,25.00
2022-08-31T21:29:38.716Z,25.00
2022-08-31T21:32:10.159Z,24.90
2022-08-31T21:34:39.246Z,24.80
2022-08-31T21:37:09.273Z,24.90
2022-08-31T21:39:42.168Z,24.80
2022-08-31T21:42:15.677Z,24.80
2022-08-31T21:44:45.892Z,24.80
2022-08-31T21:47:17.959Z,24.80
2022-08-31T21:49:52.406Z,24.80
2022-08-31T21:52:22.606Z,24.90
2022-08-31T21:54:59.145Z,24.80
2022-08-31T21:57:29.261Z,24.80
2022-08-31T21:59:58.730Z,24.80
2022-08-31T22:02:27.601Z,24.80
2022-08-31T22:04:59.348Z,24.70
2022-08-31T22:07:31.709Z,24.70
2022-08-31T22:10:02.041Z,24.60
2022-08-31T22:15:20.896Z,24.50
2022-08-31T22:18:09.568Z,24.40
2022-08-31T22:20:45.185Z,24.30
2022-08-31T22:23:17.185Z,24.30
2022-08-31T22:25:48.168Z,24.20
2022-08-31T22:28:21.417Z,24.10
2022-08-31T22:30:52.651Z,24.10
2022-08-31T22:33:24.904Z,24.10
2022-08-31T22:35:56.905Z,24.10
2022-08-31T22:38:27.418Z,24.10
2022-08-31T22:40:58.992Z,24.10
2022-08-31T22:43:29.154Z,24.10
2022-08-31T22:45:58.036Z,24.10
2022-08-31T22:48:28.833Z,24.00
2022-08-31T22:50:56.949Z,23.90
2022-08-31T22:53:31.071Z,23.90
2022-08-31T22:56:03.550Z,23.80
2022-08-31T22:58:35.253Z,23.70
2022-08-31T23:01:12.381Z,23.80
2022-08-31T23:03:45.456Z,23.80
2022-08-31T23:06:18.083Z,23.90
2022-08-31T23:08:47.689Z,23.90
2022-08-31T23:11:23.016Z,23.90
2022-08-31T23:13:57.209Z,23.90
2022-08-31T23:16:59.438Z,24.00
2022-08-31T23:19:40.375Z,24.00
2022-08-31T23:22:24.479Z,24.00
2022-08-31T23:25:08.837Z,24.00
2022-08-31T23:27:37.571Z,24.00
2022-08-31T23:30:12.487Z,24.00
2022-08-31T23:32:47.314Z,24.00
2022-08-31T23:35:19.684Z,24.00
2022-08-31T23:37:47.123Z,23.90
2022-08-31T23:40:16.957Z,23.90
2022-08-31T23:42:50.547Z,23.90
2022-08-31T23:45:17.852Z,23.90
2022-08-31T23:47:47.568Z,23.90
2022-08-31T23:50:20.305Z,23.80
2022-08-31T23:52:55.679Z,23.70
2022-08-31T23:55:27.887Z,23.70
2022-08-31T23:58:00.656Z,23.70
